Current Weather

Gray Butte Fld

Gray Butte Fld, California (KGXA)

Report from: Sunday, February 25, 2024 8:55 PM UTC
Current time: Sunday, February 25, 2024 9:46 PM UTC

Nearby weather – Weather history – Daily summaries
Weather forecast

Temperature15.5°C (59.9°F)
Dew point0.9°C (33.6°F)
Winds 5 kts (2.6 m/s, 5.8 mph) Vrb
Winds variableWinds variable
Visibility10 mi. (16.1 km)
Clouds Sky clear
Altimeter30.05 in.Hg (1018 mB)
Relative humidity37 %
Density altitude40 ft. (12 m)
Sea-level pressure101.7 kPa (1017 mB, 30.03 in.Hg)
Remarks Fully automated report
Automated weather observing station with precipitation discriminator
Estimated
Flight conditions Visual Meteorological Conditions
Raw dataKGXA 252055Z AUTO VRB05KT 10SM CLR 16/01 A3005 RMK AO2 SLP168 WND DATA ESTMD T01550009
An error has occurred. This application may no longer respond until reloaded. Reload 🗙